Data for 09/09/2005

Time Sea-Level Adjusted Pressure Absolute Pressure Temperature Relative Humidity Dew Point   
(mb) (inHg) (mb) (inHg) (C) (F) (%) (C) (F)
00:05 1011 29.85 841 24.83 25.1 77.1 18 -0.9 30.4
00:10 1011 29.85 841 24.83 25 77 18 -0.7 30.7
00:15 1011 29.85 841 24.83 25.2 77.3 18 -0.9 30.4
00:20 1011 29.85 841 24.83 25.3 77.5 18 -0.6 30.9
00:25 1011 29.85 841 24.83 25 77.1 19 -0.1 31.7
00:30 1011 29.85 841 24.83 24.9 76.8 19 -0.3 31.5
00:35 1011 29.85 841 24.83 24.6 76.4 20 0.2 32.4
00:40 1011 29.85 841 24.83 24.5 76 19 -0.2 31.7
00:45 1011 29.85 840 24.81 24.7 76.5 19 -0.3 31.5
00:50 1011 29.85 840 24.81 24.4 76 20 0 32.1
00:55 1011 29.85 840 24.81 24.2 75.5 20 0 32.1
01:00 1011 29.85 840 24.81 24.2 75.5 20 -0.1 31.8
01:05 1011 29.85 840 24.81 24.4 76 19 -0.3 31.4
01:10 1011 29.85 840 24.81 24.5 76.2 20 0.1 32.2
01:15 1011 29.85 840 24.81 24.3 75.8 20 0.2 32.3
01:20 1011 29.85 840 24.81 24.3 75.7 20 0.1 32.3
01:25 1011 29.85 840 24.81 24.2 75.6 19 -0.5 31.1
01:30 1011 29.85 840 24.81 24.4 76 20 0.1 32.2
01:35 1011 29.85 840 24.81 24.5 76.1 20 0 32
01:40 1011 29.85 840 24.81 24.2 75.6 19 -0.3 31.4
01:45 1011 29.85 840 24.81 24.2 75.6 19 -0.4 31.3
01:50 1011 29.85 840 24.81 24 75.3 20 -0.2 31.6
01:55 1011 29.85 840 24.81 23.9 75.1 20 -0.4 31.4
02:00 1011 29.85 840 24.81 23.8 74.9 20 -0.2 31.7
02:05 1011 29.85 840 24.81 23.7 74.7 20 -0.2 31.7
02:10 1011 29.85 840 24.81 23.8 74.8 20 -0.4 31.2
02:15 1011 29.85 840 24.81 23.9 74.9 20 -0.2 31.7
02:20 1011 29.85 840 24.81 23.7 74.7 21 0.1 32.2
02:25 1011 29.85 840 24.81 23.4 74.1 21 -0.1 31.9
02:30 1011 29.85 840 24.81 23.1 73.5 22 0.4 32.7
02:35 1011 29.85 840 24.81 22.3 72.1 24 0.9 33.6
02:40 1011 29.85 840 24.81 21.4 70.6 24 0.3 32.5
02:45 1011 29.85 840 24.81 21.5 70.7 23 -0.1 31.8
02:50 1011 29.85 840 24.81 21.6 70.8 24 0.1 32.2
02:55 1011 29.85 840 24.81 21.2 70.2 26 0.9 33.6
03:00 1011 29.85 840 24.81 20.3 68.6 27 0.7 33.3
03:05 1011 29.85 840 24.81 20.4 68.8 26 0.5 32.9
03:10 1011 29.85 840 24.81 20.3 68.5 26 0.5 33
03:15 1011 29.85 840 24.81 20.1 68.3 26 -0.1 31.9
03:20 1011 29.85 840 24.81 20.9 69.6 24 -0.5 31.1
03:25 1011 29.85 840 24.81 21.4 70.4 25 0.6 33.1
03:30 1011 29.85 840 24.81 21.2 70.1 24 0.2 32.4
03:35 1011 29.85 840 24.81 21 69.7 25 0.1 32.2
03:40 1010 29.83 840 24.81 20.9 69.6 26 0.8 33.4
03:45 1010 29.83 840 24.81 20.8 69.5 26 0.7 33.2
03:50 1010 29.83 840 24.81 21.2 70.1 24 -0.1 31.8
03:55 1010 29.83 840 24.81 21.4 70.6 24 0 32
04:00 1010 29.83 840 24.81 21.3 70.3 24 0.3 32.6
04:05 1010 29.83 840 24.81 20.9 69.7 25 0.4 32.7
04:10 1010 29.83 840 24.81 21 69.8 25 0.3 32.5
04:15 1010 29.83 840 24.81 20.9 69.6 25 0.1 32.3
04:20 1010 29.83 840 24.81 20.7 69.2 25 0.2 32.3
04:25 1010 29.83 839 24.78 20.7 69.3 25 0.2 32.4
04:30 1010 29.83 839 24.78 20.6 69 25 -0.1 31.8
04:35 1010 29.83 839 24.78 20.4 68.7 27 1.1 33.9
04:40 1010 29.83 839 24.78 19.7 67.5 27 0.5 33
04:45 1010 29.83 839 24.78 19.5 67.1 27 0.2 32.3
04:50 1010 29.83 839 24.78 19.3 66.8 27 0.2 32.3
04:55 1010 29.83 839 24.78 19.2 66.5 27 0.1 32.2
05:00 1010 29.83 839 24.78 19 66.2 28 0.1 32.1
05:05 1010 29.83 839 24.78 19 66.2 28 0.1 32.1
05:10 1010 29.83 839 24.78 18.7 65.7 28 0.2 32.4
05:15 1010 29.83 839 24.78 18.6 65.5 29 0.2 32.3
05:20 1010 29.83 839 24.78 18.4 65.2 29 0.1 32.2
05:25 1010 29.83 839 24.78 18.9 66.1 27 -0.4 31.3
05:30 1010 29.83 839 24.78 19.1 66.4 27 -0.1 31.9
05:35 1010 29.83 839 24.78 19.1 66.4 27 -0 31.9
05:40 1010 29.83 839 24.78 19 66.3 28 0.1 32.2
05:45 1010 29.83 839 24.78 18.9 66.1 28 0.4 32.7
05:50 1010 29.83 839 24.78 18.4 65.1 31 1.3 34.3
05:55 1010 29.83 839 24.78 17.8 64 32 1.1 33.9
06:00 1010 29.83 839 24.78 17.6 63.7 31 0.4 32.7
06:05 1010 29.83 839 24.78 17.9 64.2 30 0 32
06:10 1010 29.83 839 24.78 18.1 64.5 41 4.7 40.5
06:15 1010 29.83 839 24.78 17.8 64 34 1.8 35.3
06:20 1010 29.83 839 24.78 17.1 62.8 33 0.9 33.7
06:25 1010 29.83 839 24.78 16.7 62 33 0.6 33.1
06:30 1010 29.83 839 24.78 16.9 62.4 33 0.4 32.7
06:35 1010 29.83 839 24.78 17.1 62.8 31 -0 31.9
06:40 1009 29.8 839 24.78 18.1 64.5 28 -0.3 31.4
06:45 1009 29.8 839 24.78 18.5 65.3 29 0.3 32.5
06:50 1009 29.8 839 24.78 18.1 64.6 31 0.8 33.5
06:55 1009 29.8 839 24.78 17.2 63 31 0.1 32.2
07:00 1009 29.8 839 24.78 17.4 63.2 30 -0.4 31.3
07:05 1009 29.8 839 24.78 17.9 64.2 29 -0.2 31.6
07:10 1009 29.8 839 24.78 17.5 63.5 31 0.5 32.9
07:15 1009 29.8 839 24.78 16.8 62.3 32 0.3 32.5
07:20 1009 29.8 838 24.75 16.9 62.3 32 0.1 32.3
07:25 1009 29.8 838 24.75 16.7 62.1 34 0.9 33.6
07:30 1009 29.8 838 24.75 16.6 61.9 32 0.1 32.3
07:35 1009 29.8 838 24.75 16.6 61.8 33 0.2 32.4
07:40 1009 29.8 838 24.75 16.7 62 34 0.7 33.2
07:45 1009 29.8 838 24.75 16.5 61.7 33 0.4 32.8
07:50 1009 29.8 838 24.75 16.7 62 34 0.6 33.1
07:55 1009 29.8 838 24.75 17.1 62.7 34 1.3 34.3
08:00 1009 29.8 838 24.75 17.5 63.4 32 0.8 33.4
08:05 1009 29.8 838 24.75 17.6 63.6 33 1.2 34.1
08:10 1009 29.8 838 24.75 17.8 64 32 1 33.8
08:15 1009 29.8 838 24.75 17.7 63.8 32 0.9 33.6
08:20 1009 29.8 838 24.75 18.1 64.6 31 0.9 33.6
08:25 1009 29.8 838 24.75 18.6 65.6 31 1.2 34.2
08:30 1009 29.8 838 24.75 18.8 65.8 33 2.3 36.2
08:35 1009 29.8 838 24.75 19 66.2 31 1.8 35.3
08:40 1009 29.8 838 24.75 19.5 67.1 31 1.9 35.5
08:45 1009 29.8 838 24.75 20.3 68.5 30 2.3 36.2
08:50 1009 29.8 838 24.75 20.7 69.2 32 3.7 38.7
08:55 1009 29.8 838 24.75 21.2 70.2 29 2.7 36.9
09:00 1009 29.8 838 24.75 21.8 71.2 29 3 37.4
09:05 1009 29.8 838 24.75 22.4 72.3 26 2.1 35.8
09:10 1009 29.8 838 24.75 23 73.4 26 2.9 37.3
09:15 1008 29.77 838 24.75 23.4 74.1 25 2.6 36.6
09:20 1008 29.77 838 24.75 23.7 74.6 26 3.4 38.1
09:25 1008 29.77 838 24.75 23.9 75 27 3.9 39
09:30 1008 29.77 838 24.75 24.5 76.1 25 3.4 38.2
09:35 1008 29.77 838 24.75 25.5 77.9 24 3.5 38.3
09:40 1008 29.77 837 24.72 25.7 78.3 23 3.2 37.7
09:45 1008 29.77 837 24.72 25.9 78.5 21 2.1 35.8
09:50 1008 29.77 837 24.72 25.9 78.6 21 2.3 36.1
09:55 1008 29.77 837 24.72 26.1 79 22 2.7 36.9
10:00 1008 29.77 837 24.72 25.8 78.4 21 2.2 35.9
10:05 1008 29.77 837 24.72 25.6 78 22 2.3 36.1
10:10 1008 29.77 837 24.72 25.6 78.1 22 2.3 36.1
10:15 1008 29.77 837 24.72 26.2 79.2 23 3.8 38.8
10:20 1008 29.77 837 24.72 26.4 79.6 22 3.2 37.8
10:25 1008 29.77 837 24.72 26.4 79.5 21 2.4 36.3
10:30 1008 29.77 837 24.72 26 78.8 22 2.8 37
10:35 1008 29.77 837 24.72 26.3 79.3 21 2.4 36.4
10:40 1008 29.77 837 24.72 26.5 79.8 20 2.1 35.8
10:45 1008 29.77 837 24.72 26.5 79.7 20 2 35.7
10:50 1008 29.77 837 24.72 26.9 80.3 20 2.2 36
10:55 1008 29.77 837 24.72 26.7 80.1 20 2.2 35.9
11:00 1007 29.74 837 24.72 26.6 79.9 20 1.9 35.4
11:05 1008 29.77 837 24.72 27 80.5 21 2.8 37
11:10 1007 29.74 837 24.72 27 80.7 19 1.7 35.1
11:15 1007 29.74 837 24.72 27.1 80.7 20 2.2 36
11:20 1007 29.74 837 24.72 27.3 81.1 19 2.2 36
11:25 1007 29.74 836 24.69 27.2 80.9 20 2.6 36.7
11:30 1007 29.74 836 24.69 27.1 80.8 20 2.8 37.1
11:35 1007 29.74 836 24.69 27.4 81.3 18 1.6 34.8
11:40 1007 29.74 836 24.69 27.3 81.2 20 2.4 36.2
11:45 1007 29.74 836 24.69 27.7 81.8 19 2.1 35.7
11:50 1007 29.74 836 24.69 27.8 82 18 1.5 34.6
11:55 1007 29.74 836 24.69 27.6 81.8 18 1.5 34.6
12:00 1007 29.74 836 24.69 27.6 81.6 18 1.1 34
12:05 1007 29.74 836 24.69 27.7 81.8 18 1.7 35
12:10 1007 29.74 836 24.69 27.6 81.6 18 1.7 35.1
12:15 1007 29.74 836 24.69 27.8 82 18 1.9 35.4
12:20 1007 29.74 836 24.69 28.1 82.6 15 -0.3 31.4
12:25 1007 29.74 836 24.69 27.9 82.3 16 -0.1 31.9
12:30 1007 29.74 836 24.69 28.2 82.7 16 0.4 32.7
12:35 1007 29.74 836 24.69 28 82.4 15 -0.4 31.3
12:40 1007 29.74 836 24.69 28 82.4 15 -0.7 30.7
12:45 1007 29.74 836 24.69 28 82.3 15 -0.6 31
12:50 1006 29.71 836 24.69 28.1 82.5 15 -0.9 30.3
12:55 1006 29.71 835 24.66 28.3 83 14 -1 30.2
13:00 1006 29.71 835 24.66 28.1 82.5 15 -0.4 31.3
13:05 1006 29.71 835 24.66 27.9 82.2 15 -0.5 31.1
13:10 1006 29.71 835 24.66 28 82.3 15 -0.6 30.9
13:15 1006 29.71 835 24.66 27.9 82.2 15 -1.1 30
13:20 1006 29.71 835 24.66 27.8 82 15 -0.6 31
13:25 1006 29.71 835 24.66 27.6 81.7 15 -0.6 30.9
13:30 1006 29.71 835 24.66 27.6 81.6 15 -1.1 30.1
13:35 1006 29.71 835 24.66 27.5 81.6 16 -0.4 31.2
13:40 1006 29.71 835 24.66 28.2 82.7 16 0.3 32.5
13:45 1006 29.71 835 24.66 27.8 82 16 -0.2 31.7
13:50 1006 29.71 835 24.66 27.7 81.8 16 -0.4 31.3
13:55 1006 29.71 835 24.66 28 82.3 16 0.1 32.1
14:00 1006 29.71 835 24.66 27.9 82.3 16 0.1 32.3
14:05 1006 29.71 835 24.66 27.7 81.9 17 1.1 33.9
14:10 1006 29.71 835 24.66 27.7 81.9 17 0.8 33.5
14:15 1006 29.71 835 24.66 27.8 82.1 18 2 35.5
14:20 1005 29.68 835 24.66 27.8 82 17 0.9 33.7
14:25 1006 29.71 835 24.66 27.4 81.4 17 0.6 33
14:30 1005 29.68 835 24.66 27.2 81 19 1.7 35.1
14:35 1005 29.68 834 24.63 27.5 81.5 17 0.9 33.6
14:40 1005 29.68 835 24.66 27.5 81.5 18 1.5 34.8
14:45 1005 29.68 835 24.66 27.5 81.5 18 1.4 34.5
14:50 1005 29.68 835 24.66 27.7 81.8 17 0.9 33.6
14:55 1005 29.68 834 24.63 27.6 81.7 18 1.4 34.5
15:00 1005 29.68 834 24.63 28.1 82.6 16 0.4 32.8
15:05 1005 29.68 834 24.63 27.8 82 17 0.9 33.7
15:10 1005 29.68 834 24.63 27.4 81.3 18 0.9 33.6
15:15 1005 29.68 834 24.63 27.4 81.2 16 -0.6 30.8
15:20 1005 29.68 834 24.63 27.3 81.1 16 -0.4 31.3
15:25 1005 29.68 834 24.63 27.4 81.3 16 -0.3 31.4
15:30 1005 29.68 834 24.63 27.3 81.1 15 -1.6 29.1
15:35 1005 29.68 834 24.63 27.6 81.6 16 -0.5 31.2
15:40 1005 29.68 834 24.63 27.9 82.2 15 -0.5 31
15:45 1004 29.65 834 24.63 28.1 82.6 16 -0.1 31.9
15:50 1004 29.65 834 24.63 28.2 82.7 15 -0.6 31
15:55 1004 29.65 834 24.63 27.7 81.8 14 -1.5 29.3
16:00 1004 29.65 834 24.63 27.5 81.4 14 -1.9 28.6
16:05 1004 29.65 833 24.6 28 82.4 15 -1.1 30.1
16:10 1004 29.65 833 24.6 28 82.5 14 -2 28.4
16:15 1004 29.65 833 24.6 28.2 82.8 15 -0.5 31.1
16:20 1004 29.65 833 24.6 28 82.4 14 -1.3 29.7
16:25 1004 29.65 833 24.6 27.8 82.1 14 -1.6 29.1
16:30 1004 29.65 833 24.6 28.2 82.7 14 -1.7 28.9
16:35 1004 29.65 833 24.6 28.3 82.9 15 -0.7 30.7
16:40 1004 29.65 833 24.6 28.1 82.6 15 -0.9 30.4
16:45 1003 29.62 833 24.6 28.1 82.6 14 -1.7 29
16:50 1004 29.65 833 24.6 28 82.4 15 -0.7 30.8
16:55 1004 29.65 833 24.6 27.6 81.6 16 -0.4 31.3
17:00 1004 29.65 833 24.6 27.1 80.9 16 -0.5 31.1
17:05 1004 29.65 833 24.6 27.2 80.9 15 -1.2 29.8
17:10 1004 29.65 833 24.6 27.5 81.4 16 -0.4 31.3
17:15 1004 29.65 833 24.6 27.6 81.7 16 -0.2 31.6
17:20 1004 29.65 833 24.6 27.6 81.7 16 -0.4 31.3
17:25 1004 29.65 833 24.6 27.5 81.5 15 -0.8 30.6
17:30 1004 29.65 833 24.6 27.4 81.3 16 -0.3 31.4
17:35 1004 29.65 833 24.6 27.3 81.1 17 0.2 32.3
17:40 1004 29.65 833 24.6 27.4 81.2 17 0.2 32.3
17:45 1004 29.65 833 24.6 27.3 81.1 18 1.2 34.1
17:50 1003 29.62 833 24.6 27.2 80.9 16 -0.2 31.6
17:55 1003 29.62 833 24.6 27.1 80.8 19 1.7 35
18:00 1003 29.62 833 24.6 27.1 80.7 16 -1 30.3
18:05 1003 29.62 833 24.6 27.1 80.8 15 -1.4 29.5
18:10 1003 29.62 833 24.6 27 80.7 18 0.9 33.7
18:15 1003 29.62 833 24.6 26.7 80 20 2.3 36.2
18:20 1003 29.62 832 24.57 26.2 79.1 18 0.3 32.6
18:25 1003 29.62 833 24.6 26.3 79.3 22 2.9 37.1
18:30 1003 29.62 833 24.6 25.9 78.7 21 1.9 35.4
18:35 1003 29.62 833 24.6 25.5 78 21 1.8 35.2
18:40 1003 29.62 833 24.6 25.4 77.8 21 1.5 34.7
18:45 1003 29.62 833 24.6 25.5 78 18 -0.3 31.5
18:50 1003 29.62 833 24.6 26.1 79 14 -3.1 26.4
18:55 1003 29.62 832 24.57 26.4 79.5 14 -3.3 26.1
19:00 1003 29.62 832 24.57 26.2 79.2 14 -3.2 26.2
19:05 1003 29.62 832 24.57 26.1 79 14 -3.6 25.5
19:10 1003 29.62 832 24.57 26.2 79.1 14 -3.6 25.6
19:15 1003 29.62 832 24.57 26.2 79.1 14 -3.5 25.7
19:20 1003 29.62 832 24.57 26.1 78.9 14 -3.2 26.3
19:25 1003 29.62 833 24.6 25.9 78.6 14 -3 26.6
19:30 1003 29.62 833 24.6 25.5 77.9 14 -3.7 25.4
19:35 1003 29.62 833 24.6 25.3 77.6 14 -3.4 25.9
19:40 1003 29.62 833 24.6 25 76.9 15 -3.5 25.7
19:45 1003 29.62 833 24.6 25 77 14 -4.6 23.7
19:50 1004 29.65 833 24.6 25.1 77.2 13 -4.7 23.6
19:55 1004 29.65 833 24.6 25 77 13 -4.9 23.2
20:00 1004 29.65 833 24.6 24.7 76.5 14 -4.8 23.4
20:05 1004 29.65 833 24.6 24.3 75.7 14 -4.7 23.5
20:10 1004 29.65 833 24.6 23.6 74.5 15 -4.6 23.6
20:15 1004 29.65 833 24.6 23.3 73.9 15 -4.4 24
20:20 1004 29.65 833 24.6 23 73.5 15 -4.5 23.9
20:25 1004 29.65 833 24.6 22.9 73.2 15 -4.9 23.2
20:30 1004 29.65 833 24.6 23.1 73.6 15 -4.7 23.6
20:35 1004 29.65 833 24.6 23 73.4 15 -4.4 24
20:40 1004 29.65 833 24.6 22.4 72.4 16 -4.8 23.4
20:45 1004 29.65 833 24.6 22.1 71.9 17 -3.5 25.7
20:50 1004 29.65 833 24.6 21.4 70.5 19 -3.3 26.1
20:55 1004 29.65 833 24.6 21 69.7 19 -3.7 25.4
21:00 1004 29.65 833 24.6 20.9 69.6 19 -3.1 26.4
21:05 1004 29.65 833 24.6 20.6 69 19 -3.5 25.7
21:10 1004 29.65 834 24.63 20.7 69.2 19 -3.3 26
21:15 1005 29.68 834 24.63 20.4 68.7 23 -1.5 29.2
21:20 1005 29.68 834 24.63 19.8 67.7 25 -0.4 31.3
21:25 1005 29.68 834 24.63 19.6 67.2 28 0.9 33.6
21:30 1005 29.68 834 24.63 19.1 66.4 30 1.5 34.6
21:35 1005 29.68 834 24.63 18.8 65.8 32 2.1 35.7
21:40 1005 29.68 834 24.63 18.4 65 34 2.5 36.5
21:45 1005 29.68 834 24.63 17.7 63.9 37 3.1 37.6
21:50 1005 29.68 834 24.63 17.3 63.1 39 3.4 38.2
21:55 1005 29.68 835 24.66 16.8 62.2 42 3.8 38.8
22:00 1005 29.68 835 24.66 16.4 61.4 43 3.9 39
22:05 1006 29.71 835 24.66 16.2 61.1 45 4.3 39.8
22:10 1006 29.71 835 24.66 15.7 60.2 47 4.5 40
22:15 1006 29.71 835 24.66 15.4 59.7 47 4.3 39.7
22:20 1006 29.71 835 24.66 15.4 59.8 47 4.3 39.7
22:25 1006 29.71 835 24.66 15.7 60.2 46 4.2 39.5
22:30 1006 29.71 835 24.66 15.8 60.5 46 4.2 39.6
22:35 1006 29.71 835 24.66 16 60.8 45 4 39.3
22:40 1006 29.71 835 24.66 15.9 60.6 46 4.4 40
22:45 1006 29.71 835 24.66 15.6 60.1 48 4.8 40.6
22:50 1006 29.71 835 24.66 15.5 59.9 48 4.7 40.4
22:55 1006 29.71 835 24.66 15.4 59.6 49 4.8 40.6
23:00 1006 29.71 836 24.69 15.2 59.3 49 4.7 40.4
23:05 1006 29.71 836 24.69 15.2 59.3 50 4.9 40.9
23:10 1007 29.74 836 24.69 15.1 59.2 50 5 41
23:15 1007 29.74 836 24.69 15 59 51 5.1 41.2
23:20 1007 29.74 836 24.69 14.8 58.7 52 5.2 41.4
23:25 1007 29.74 836 24.69 14.7 58.4 54 5.4 41.7
23:30 1007 29.74 836 24.69 14.4 58 55 5.5 41.9
23:35 1007 29.74 836 24.69 14.3 57.7 56 5.7 42.2
23:40 1007 29.74 836 24.69 14.1 57.3 57 5.7 42.3
23:45 1007 29.74 836 24.69 13.9 57 58 5.9 42.6
23:50 1007 29.74 836 24.69 13.8 56.9 59 6 42.8
23:55 1007 29.74 836 24.69 13.6 56.6 60 6 42.9
24:00 1007 29.74 836 24.69 13.5 56.3 60 6 42.8